sensor_id;sensor_type;location;lat;lon;timestamp;pressure;altitude;pressure_sealevel;temperature;humidity
62059;BME280;48017;51.064;7.014;2022-08-19T00:01:39;100577.56;;;20.08;77.80
62059;BME280;48017;51.064;7.014;2022-08-19T00:04:08;100572.63;;;20.11;77.79
62059;BME280;48017;51.064;7.014;2022-08-19T00:06:35;100577.19;;;20.11;78.23
62059;BME280;48017;51.064;7.014;2022-08-19T00:09:03;100582.56;;;19.90;78.92
62059;BME280;48017;51.064;7.014;2022-08-19T00:11:28;100589.25;;;19.94;79.12
62059;BME280;48017;51.064;7.014;2022-08-19T00:13:55;100585.13;;;19.98;78.62
62059;BME280;48017;51.064;7.014;2022-08-19T00:16:22;100586.66;;;19.85;79.37
62059;BME280;48017;51.064;7.014;2022-08-19T00:18:48;100589.47;;;19.77;79.65
62059;BME280;48017;51.064;7.014;2022-08-19T00:21:13;100580.13;;;19.73;79.73
62059;BME280;48017;51.064;7.014;2022-08-19T00:23:39;100591.00;;;19.65;79.89
62059;BME280;48017;51.064;7.014;2022-08-19T00:26:06;100582.34;;;19.55;80.63
62059;BME280;48017;51.064;7.014;2022-08-19T00:28:32;100581.34;;;19.56;80.48
62059;BME280;48017;51.064;7.014;2022-08-19T00:30:59;100583.03;;;19.57;80.41
62059;BME280;48017;51.064;7.014;2022-08-19T00:33:24;100586.63;;;19.64;79.77
62059;BME280;48017;51.064;7.014;2022-08-19T00:35:50;100588.53;;;19.70;79.67
62059;BME280;48017;51.064;7.014;2022-08-19T00:38:15;100585.22;;;19.68;79.58
62059;BME280;48017;51.064;7.014;2022-08-19T00:40:44;100591.44;;;19.54;80.30
62059;BME280;48017;51.064;7.014;2022-08-19T00:43:12;100585.78;;;19.49;81.09
62059;BME280;48017;51.064;7.014;2022-08-19T00:45:38;100587.72;;;19.55;80.58
62059;BME280;48017;51.064;7.014;2022-08-19T00:48:07;100577.25;;;19.60;80.25
62059;BME280;48017;51.064;7.014;2022-08-19T00:50:33;100575.41;;;19.61;80.01
62059;BME280;48017;51.064;7.014;2022-08-19T00:52:58;100566.88;;;19.57;80.07
62059;BME280;48017;51.064;7.014;2022-08-19T00:55:26;100583.47;;;19.61;79.97
62059;BME280;48017;51.064;7.014;2022-08-19T00:58:02;100579.84;;;19.68;79.64
62059;BME280;48017;51.064;7.014;2022-08-19T01:00:31;100578.28;;;19.59;79.97
62059;BME280;48017;51.064;7.014;2022-08-19T01:02:56;100587.72;;;19.55;80.18
62059;BME280;48017;51.064;7.014;2022-08-19T01:05:27;100579.03;;;19.53;80.08
62059;BME280;48017;51.064;7.014;2022-08-19T01:07:54;100587.63;;;19.48;80.47
62059;BME280;48017;51.064;7.014;2022-08-19T01:10:22;100583.88;;;19.43;80.64
62059;BME280;48017;51.064;7.014;2022-08-19T01:12:49;100596.63;;;19.41;80.88
62059;BME280;48017;51.064;7.014;2022-08-19T01:15:19;100584.41;;;19.38;80.67
62059;BME280;48017;51.064;7.014;2022-08-19T01:17:46;100584.88;;;19.42;80.56
62059;BME280;48017;51.064;7.014;2022-08-19T01:20:16;100584.59;;;19.37;80.91
62059;BME280;48017;51.064;7.014;2022-08-19T01:22:50;100585.88;;;19.41;80.38
62059;BME280;48017;51.064;7.014;2022-08-19T01:25:19;100583.38;;;19.39;80.66
62059;BME280;48017;51.064;7.014;2022-08-19T01:27:47;100581.66;;;19.32;80.61
62059;BME280;48017;51.064;7.014;2022-08-19T01:30:19;100582.84;;;19.44;80.32
62059;BME280;48017;51.064;7.014;2022-08-19T01:32:45;100577.94;;;19.33;80.62
62059;BME280;48017;51.064;7.014;2022-08-19T01:35:12;100575.44;;;19.31;80.55
62059;BME280;48017;51.064;7.014;2022-08-19T01:37:48;100569.88;;;19.33;80.17
62059;BME280;48017;51.064;7.014;2022-08-19T01:40:16;100574.59;;;19.31;80.49
62059;BME280;48017;51.064;7.014;2022-08-19T01:42:41;100570.91;;;19.17;80.94
62059;BME280;48017;51.064;7.014;2022-08-19T01:45:07;100574.16;;;18.97;82.20
62059;BME280;48017;51.064;7.014;2022-08-19T01:47:36;100571.81;;;19.09;82.00
62059;BME280;48017;51.064;7.014;2022-08-19T01:50:05;100568.41;;;19.15;81.29
62059;BME280;48017;51.064;7.014;2022-08-19T01:52:30;100565.72;;;19.15;81.06
62059;BME280;48017;51.064;7.014;2022-08-19T01:54:56;100560.97;;;19.17;81.15
62059;BME280;48017;51.064;7.014;2022-08-19T01:57:21;100554.78;;;19.17;80.81
62059;BME280;48017;51.064;7.014;2022-08-19T01:59:47;100559.72;;;19.13;81.17
62059;BME280;48017;51.064;7.014;2022-08-19T02:02:12;100557.94;;;19.06;81.54
62059;BME280;48017;51.064;7.014;2022-08-19T02:04:38;100562.28;;;19.07;81.64
62059;BME280;48017;51.064;7.014;2022-08-19T02:07:05;100560.81;;;19.04;81.21
62059;BME280;48017;51.064;7.014;2022-08-19T02:09:32;100564.44;;;19.11;81.19
62059;BME280;48017;51.064;7.014;2022-08-19T02:11:57;100566.09;;;18.97;81.48
62059;BME280;48017;51.064;7.014;2022-08-19T02:14:23;100572.16;;;18.62;83.58
62059;BME280;48017;51.064;7.014;2022-08-19T02:16:48;100577.34;;;18.63;83.56
62059;BME280;48017;51.064;7.014;2022-08-19T02:19:14;100578.03;;;18.42;84.93
62059;BME280;48017;51.064;7.014;2022-08-19T02:21:39;100563.97;;;18.18;86.57
62059;BME280;48017;51.064;7.014;2022-08-19T02:24:05;100566.78;;;18.24;86.26
62059;BME280;48017;51.064;7.014;2022-08-19T02:26:32;100565.38;;;18.28;85.62
62059;BME280;48017;51.064;7.014;2022-08-19T02:28:57;100567.66;;;18.17;86.12
62059;BME280;48017;51.064;7.014;2022-08-19T02:31:25;100569.13;;;18.04;86.87
62059;BME280;48017;51.064;7.014;2022-08-19T02:33:52;100563.63;;;17.98;87.55
62059;BME280;48017;51.064;7.014;2022-08-19T02:36:18;100571.75;;;18.12;86.75
62059;BME280;48017;51.064;7.014;2022-08-19T02:38:44;100580.34;;;18.46;84.93
62059;BME280;48017;51.064;7.014;2022-08-19T02:41:18;100584.31;;;18.35;85.30
62059;BME280;48017;51.064;7.014;2022-08-19T02:43:45;100588.66;;;18.36;85.35
62059;BME280;48017;51.064;7.014;2022-08-19T02:48:47;100582.78;;;18.55;84.34
62059;BME280;48017;51.064;7.014;2022-08-19T02:51:29;100583.72;;;18.62;84.08
62059;BME280;48017;51.064;7.014;2022-08-19T02:53:56;100574.31;;;18.66;83.32
62059;BME280;48017;51.064;7.014;2022-08-19T02:56:22;100587.03;;;18.27;85.59
62059;BME280;48017;51.064;7.014;2022-08-19T02:58:49;100587.84;;;18.12;86.41
62059;BME280;48017;51.064;7.014;2022-08-19T03:01:29;100587.97;;;18.19;86.22
62059;BME280;48017;51.064;7.014;2022-08-19T03:03:56;100587.94;;;18.42;84.91
62059;BME280;48017;51.064;7.014;2022-08-19T03:06:23;100588.53;;;18.52;84.41
62059;BME280;48017;51.064;7.014;2022-08-19T03:08:49;100587.44;;;18.61;83.90
62059;BME280;48017;51.064;7.014;2022-08-19T03:11:17;100589.44;;;18.59;84.18
62059;BME280;48017;51.064;7.014;2022-08-19T03:13:42;100589.81;;;18.56;84.13
62059;BME280;48017;51.064;7.014;2022-08-19T03:16:08;100581.03;;;18.62;84.00
62059;BME280;48017;51.064;7.014;2022-08-19T03:18:34;100579.69;;;18.66;83.41
62059;BME280;48017;51.064;7.014;2022-08-19T03:20:59;100588.38;;;18.68;83.34
62059;BME280;48017;51.064;7.014;2022-08-19T03:23:25;100582.38;;;18.66;82.94
62059;BME280;48017;51.064;7.014;2022-08-19T03:25:52;100588.44;;;18.60;83.34
62059;BME280;48017;51.064;7.014;2022-08-19T03:28:19;100593.00;;;18.60;83.90
62059;BME280;48017;51.064;7.014;2022-08-19T03:31:00;100591.13;;;18.60;83.59
62059;BME280;48017;51.064;7.014;2022-08-19T03:33:27;100599.06;;;18.54;83.81
62059;BME280;48017;51.064;7.014;2022-08-19T03:36:09;100594.41;;;18.48;84.43
62059;BME280;48017;51.064;7.014;2022-08-19T03:38:38;100601.63;;;18.47;84.41
62059;BME280;48017;51.064;7.014;2022-08-19T03:41:09;100602.84;;;18.45;84.11
62059;BME280;48017;51.064;7.014;2022-08-19T03:43:40;100595.25;;;18.48;84.29
62059;BME280;48017;51.064;7.014;2022-08-19T03:46:12;100600.09;;;18.53;83.70
62059;BME280;48017;51.064;7.014;2022-08-19T03:48:39;100595.94;;;18.50;83.78
62059;BME280;48017;51.064;7.014;2022-08-19T03:51:06;100604.38;;;18.39;84.54
62059;BME280;48017;51.064;7.014;2022-08-19T03:53:33;100602.38;;;18.41;84.71
62059;BME280;48017;51.064;7.014;2022-08-19T03:56:00;100603.38;;;18.17;86.03
62059;BME280;48017;51.064;7.014;2022-08-19T03:58:30;100606.66;;;18.04;86.91
62059;BME280;48017;51.064;7.014;2022-08-19T04:00:56;100597.50;;;17.99;87.20
62059;BME280;48017;51.064;7.014;2022-08-19T04:03:23;100602.63;;;17.77;88.59
62059;BME280;48017;51.064;7.014;2022-08-19T04:05:49;100604.19;;;17.72;89.02
62059;BME280;48017;51.064;7.014;2022-08-19T04:08:15;100614.75;;;17.73;88.84
62059;BME280;48017;51.064;7.014;2022-08-19T04:10:44;100614.41;;;17.68;88.93
62059;BME280;48017;51.064;7.014;2022-08-19T04:13:09;100605.16;;;17.79;88.01
62059;BME280;48017;51.064;7.014;2022-08-19T04:15:40;100609.38;;;17.73;88.39
62059;BME280;48017;51.064;7.014;2022-08-19T04:18:08;100618.97;;;17.60;89.02
62059;BME280;48017;51.064;7.014;2022-08-19T04:20:42;100618.44;;;17.72;88.97
62059;BME280;48017;51.064;7.014;2022-08-19T04:23:08;100616.84;;;17.47;89.82
62059;BME280;48017;51.064;7.014;2022-08-19T04:25:41;100622.56;;;17.36;91.30
62059;BME280;48017;51.064;7.014;2022-08-19T04:28:09;100617.78;;;17.15;92.41
62059;BME280;48017;51.064;7.014;2022-08-19T04:30:44;100619.38;;;17.48;90.78
62059;BME280;48017;51.064;7.014;2022-08-19T04:33:11;100616.94;;;17.70;89.37
62059;BME280;48017;51.064;7.014;2022-08-19T04:35:40;100615.97;;;17.54;89.94
62059;BME280;48017;51.064;7.014;2022-08-19T04:38:06;100625.38;;;17.50;90.70
62059;BME280;48017;51.064;7.014;2022-08-19T04:40:32;100622.66;;;17.59;90.28
62059;BME280;48017;51.064;7.014;2022-08-19T04:43:16;100621.25;;;17.40;90.73
62059;BME280;48017;51.064;7.014;2022-08-19T04:45:45;100621.63;;;17.20;92.57
62059;BME280;48017;51.064;7.014;2022-08-19T04:48:11;100616.06;;;17.38;91.39
62059;BME280;48017;51.064;7.014;2022-08-19T04:50:40;100622.38;;;17.45;91.61
62059;BME280;48017;51.064;7.014;2022-08-19T04:53:06;100633.41;;;17.50;91.14
62059;BME280;48017;51.064;7.014;2022-08-19T04:55:32;100634.63;;;17.48;91.52
62059;BME280;48017;51.064;7.014;2022-08-19T04:57:57;100635.28;;;17.42;91.96
62059;BME280;48017;51.064;7.014;2022-08-19T05:00:23;100640.69;;;17.25;93.26
62059;BME280;48017;51.064;7.014;2022-08-19T05:02:48;100647.53;;;17.36;92.96
62059;BME280;48017;51.064;7.014;2022-08-19T05:05:14;100651.41;;;17.34;93.01
62059;BME280;48017;51.064;7.014;2022-08-19T05:07:40;100661.25;;;17.49;92.63
62059;BME280;48017;51.064;7.014;2022-08-19T05:10:06;100655.38;;;17.46;92.79
62059;BME280;48017;51.064;7.014;2022-08-19T05:12:32;100648.03;;;17.40;93.36
62059;BME280;48017;51.064;7.014;2022-08-19T05:14:58;100647.94;;;17.72;91.62
62059;BME280;48017;51.064;7.014;2022-08-19T05:17:25;100645.78;;;17.99;89.32
62059;BME280;48017;51.064;7.014;2022-08-19T05:19:51;100644.59;;;17.62;90.97
62059;BME280;48017;51.064;7.014;2022-08-19T05:22:35;100656.25;;;17.38;92.93
62059;BME280;48017;51.064;7.014;2022-08-19T05:25:07;100656.50;;;17.60;92.37
62059;BME280;48017;51.064;7.014;2022-08-19T05:27:33;100661.50;;;17.71;91.12
62059;BME280;48017;51.064;7.014;2022-08-19T05:29:59;100669.88;;;17.68;91.25
62059;BME280;48017;51.064;7.014;2022-08-19T05:32:25;100670.22;;;17.65;91.42
62059;BME280;48017;51.064;7.014;2022-08-19T05:34:51;100675.56;;;17.65;91.54
62059;BME280;48017;51.064;7.014;2022-08-19T05:37:16;100670.22;;;17.65;91.75
62059;BME280;48017;51.064;7.014;2022-08-19T05:39:42;100669.13;;;17.90;90.21
62059;BME280;48017;51.064;7.014;2022-08-19T05:42:11;100666.47;;;18.13;88.68
62059;BME280;48017;51.064;7.014;2022-08-19T05:44:42;100670.44;;;17.94;89.62
62059;BME280;48017;51.064;7.014;2022-08-19T05:47:10;100671.00;;;18.12;89.35
62059;BME280;48017;51.064;7.014;2022-08-19T05:49:36;100671.41;;;18.01;90.18
62059;BME280;48017;51.064;7.014;2022-08-19T05:52:07;100674.81;;;18.18;89.57
62059;BME280;48017;51.064;7.014;2022-08-19T05:54:33;100670.66;;;18.16;89.94
62059;BME280;48017;51.064;7.014;2022-08-19T05:57:00;100677.34;;;18.20;90.45
62059;BME280;48017;51.064;7.014;2022-08-19T05:59:26;100672.88;;;18.35;90.03
62059;BME280;48017;51.064;7.014;2022-08-19T06:01:52;100673.00;;;18.64;89.33
62059;BME280;48017;51.064;7.014;2022-08-19T06:04:19;100676.72;;;18.40;90.91
62059;BME280;48017;51.064;7.014;2022-08-19T06:06:52;100674.13;;;18.24;92.58
62059;BME280;48017;51.064;7.014;2022-08-19T06:09:19;100678.09;;;18.28;92.69
62059;BME280;48017;51.064;7.014;2022-08-19T06:11:54;100669.41;;;18.49;91.55
62059;BME280;48017;51.064;7.014;2022-08-19T06:14:27;100675.56;;;18.81;89.83
62059;BME280;48017;51.064;7.014;2022-08-19T06:16:53;100671.06;;;18.96;89.49
62059;BME280;48017;51.064;7.014;2022-08-19T06:19:21;100658.94;;;19.15;88.29
62059;BME280;48017;51.064;7.014;2022-08-19T06:21:49;100656.06;;;19.16;88.75
62059;BME280;48017;51.064;7.014;2022-08-19T06:24:18;100659.31;;;19.26;88.79
62059;BME280;48017;51.064;7.014;2022-08-19T06:26:46;100662.19;;;19.25;89.31
62059;BME280;48017;51.064;7.014;2022-08-19T06:29:13;100670.53;;;19.45;88.49
62059;BME280;48017;51.064;7.014;2022-08-19T06:31:44;100668.22;;;19.71;86.87
62059;BME280;48017;51.064;7.014;2022-08-19T06:34:10;100666.94;;;19.52;88.15
62059;BME280;48017;51.064;7.014;2022-08-19T06:36:39;100667.31;;;19.64;87.61
62059;BME280;48017;51.064;7.014;2022-08-19T06:39:12;100663.06;;;20.06;86.15
62059;BME280;48017;51.064;7.014;2022-08-19T06:41:41;100662.56;;;20.38;84.30
62059;BME280;48017;51.064;7.014;2022-08-19T06:44:07;100653.84;;;20.15;85.22
62059;BME280;48017;51.064;7.014;2022-08-19T06:46:33;100660.50;;;20.55;83.67
62059;BME280;48017;51.064;7.014;2022-08-19T06:48:59;100667.16;;;20.59;83.53
62059;BME280;48017;51.064;7.014;2022-08-19T06:51:25;100670.91;;;20.86;82.42
62059;BME280;48017;51.064;7.014;2022-08-19T06:53:52;100670.78;;;20.73;82.79
62059;BME280;48017;51.064;7.014;2022-08-19T06:56:21;100678.28;;;20.78;83.18
62059;BME280;48017;51.064;7.014;2022-08-19T06:58:47;100672.56;;;20.87;82.51
62059;BME280;48017;51.064;7.014;2022-08-19T07:01:17;100672.47;;;21.02;82.07
62059;BME280;48017;51.064;7.014;2022-08-19T07:03:42;100677.94;;;21.37;80.36
62059;BME280;48017;51.064;7.014;2022-08-19T07:06:11;100677.56;;;21.18;81.13
62059;BME280;48017;51.064;7.014;2022-08-19T07:08:37;100677.88;;;20.81;82.58
62059;BME280;48017;51.064;7.014;2022-08-19T07:11:10;100678.88;;;20.52;84.27
62059;BME280;48017;51.064;7.014;2022-08-19T07:13:37;100684.78;;;20.62;83.99
62059;BME280;48017;51.064;7.014;2022-08-19T07:16:04;100688.16;;;20.70;83.36
62059;BME280;48017;51.064;7.014;2022-08-19T07:18:30;100691.63;;;20.86;82.68
62059;BME280;48017;51.064;7.014;2022-08-19T07:21:10;100702.59;;;21.12;80.96
62059;BME280;48017;51.064;7.014;2022-08-19T07:23:35;100688.47;;;20.82;82.42
62059;BME280;48017;51.064;7.014;2022-08-19T07:26:10;100700.47;;;21.29;80.17
62059;BME280;48017;51.064;7.014;2022-08-19T07:28:36;100704.03;;;21.08;80.46
62059;BME280;48017;51.064;7.014;2022-08-19T07:31:07;100706.16;;;21.41;79.50
62059;BME280;48017;51.064;7.014;2022-08-19T07:33:34;100713.22;;;21.83;77.08
62059;BME280;48017;51.064;7.014;2022-08-19T07:36:03;100717.25;;;22.00;75.76
62059;BME280;48017;51.064;7.014;2022-08-19T07:38:30;100709.31;;;21.92;76.57
62059;BME280;48017;51.064;7.014;2022-08-19T07:40:56;100711.25;;;21.57;78.07
62059;BME280;48017;51.064;7.014;2022-08-19T07:43:21;100717.22;;;21.52;77.90
62059;BME280;48017;51.064;7.014;2022-08-19T07:45:50;100725.44;;;21.38;78.91
62059;BME280;48017;51.064;7.014;2022-08-19T07:48:15;100729.44;;;21.48;78.20
62059;BME280;48017;51.064;7.014;2022-08-19T07:50:41;100728.13;;;21.38;78.83
62059;BME280;48017;51.064;7.014;2022-08-19T07:53:06;100719.88;;;21.46;78.60
62059;BME280;48017;51.064;7.014;2022-08-19T07:55:31;100724.38;;;21.67;77.76
62059;BME280;48017;51.064;7.014;2022-08-19T07:57:57;100730.00;;;21.72;76.84
62059;BME280;48017;51.064;7.014;2022-08-19T08:00:22;100731.81;;;21.65;77.08
62059;BME280;48017;51.064;7.014;2022-08-19T08:02:48;100744.09;;;21.67;76.74
62059;BME280;48017;51.064;7.014;2022-08-19T08:05:13;100741.22;;;22.10;74.95
62059;BME280;48017;51.064;7.014;2022-08-19T08:07:57;100750.03;;;22.38;73.03
62059;BME280;48017;51.064;7.014;2022-08-19T08:10:41;100749.19;;;22.38;73.19
62059;BME280;48017;51.064;7.014;2022-08-19T08:13:06;100757.34;;;22.58;72.49
62059;BME280;48017;51.064;7.014;2022-08-19T08:15:32;100746.19;;;22.87;70.57
62059;BME280;48017;51.064;7.014;2022-08-19T08:17:57;100745.38;;;23.33;69.35
62059;BME280;48017;51.064;7.014;2022-08-19T08:20:23;100756.09;;;23.93;66.12
62059;BME280;48017;51.064;7.014;2022-08-19T08:22:49;100756.91;;;23.93;65.99
62059;BME280;48017;51.064;7.014;2022-08-19T08:25:35;100761.13;;;23.76;66.33
62059;BME280;48017;51.064;7.014;2022-08-19T08:28:01;100759.19;;;23.90;65.88
62059;BME280;48017;51.064;7.014;2022-08-19T08:30:28;100747.81;;;23.54;66.93
62059;BME280;48017;51.064;7.014;2022-08-19T08:32:54;100749.47;;;23.69;66.55
62059;BME280;48017;51.064;7.014;2022-08-19T08:35:22;100754.38;;;24.05;65.18
62059;BME280;48017;51.064;7.014;2022-08-19T08:37:49;100760.16;;;24.22;64.89
62059;BME280;48017;51.064;7.014;2022-08-19T08:43:17;100754.63;;;24.41;63.88
62059;BME280;48017;51.064;7.014;2022-08-19T08:46:03;100752.56;;;23.79;65.97
62059;BME280;48017;51.064;7.014;2022-08-19T08:48:44;100754.28;;;23.60;66.52
62059;BME280;48017;51.064;7.014;2022-08-19T08:51:16;100744.28;;;22.81;69.13
62059;BME280;48017;51.064;7.014;2022-08-19T08:53:44;100743.25;;;23.28;68.82
62059;BME280;48017;51.064;7.014;2022-08-19T08:56:12;100745.75;;;23.37;68.52
62059;BME280;48017;51.064;7.014;2022-08-19T08:58:47;100738.25;;;23.45;68.64
62059;BME280;48017;51.064;7.014;2022-08-19T09:01:15;100745.56;;;23.32;68.98
62059;BME280;48017;51.064;7.014;2022-08-19T09:03:42;100746.59;;;23.44;67.88
62059;BME280;48017;51.064;7.014;2022-08-19T09:06:18;100745.31;;;23.66;66.95
62059;BME280;48017;51.064;7.014;2022-08-19T09:16:32;100751.34;;;24.26;63.73
62059;BME280;48017;51.064;7.014;2022-08-19T09:19:04;100752.56;;;24.30;63.51
62059;BME280;48017;51.064;7.014;2022-08-19T09:21:30;100743.97;;;24.78;61.76
62059;BME280;48017;51.064;7.014;2022-08-19T09:23:56;100741.72;;;24.75;61.25
62059;BME280;48017;51.064;7.014;2022-08-19T09:26:23;100742.63;;;24.94;60.73
62059;BME280;48017;51.064;7.014;2022-08-19T09:28:51;100741.53;;;24.70;61.74
62059;BME280;48017;51.064;7.014;2022-08-19T09:31:22;100737.56;;;24.73;60.62
62059;BME280;48017;51.064;7.014;2022-08-19T09:33:48;100743.38;;;24.45;61.08
62059;BME280;48017;51.064;7.014;2022-08-19T09:36:16;100740.59;;;24.13;63.03
62059;BME280;48017;51.064;7.014;2022-08-19T09:38:43;100735.25;;;23.93;63.60
62059;BME280;48017;51.064;7.014;2022-08-19T09:41:15;100742.34;;;24.39;62.91
62059;BME280;48017;51.064;7.014;2022-08-19T09:43:43;100735.78;;;25.16;60.28
62059;BME280;48017;51.064;7.014;2022-08-19T09:46:09;100745.13;;;24.64;61.52
62059;BME280;48017;51.064;7.014;2022-08-19T09:48:35;100740.53;;;24.26;60.88
62059;BME280;48017;51.064;7.014;2022-08-19T09:51:03;100745.91;;;25.03;58.62
62059;BME280;48017;51.064;7.014;2022-08-19T09:53:29;100744.66;;;24.98;56.14
62059;BME280;48017;51.064;7.014;2022-08-19T09:55:57;100744.31;;;25.20;53.96
62059;BME280;48017;51.064;7.014;2022-08-19T09:58:22;100737.50;;;25.11;54.58
62059;BME280;48017;51.064;7.014;2022-08-19T10:00:56;100738.19;;;25.49;54.59
62059;BME280;48017;51.064;7.014;2022-08-19T10:03:22;100734.38;;;25.32;55.11
62059;BME280;48017;51.064;7.014;2022-08-19T10:05:48;100734.63;;;25.49;54.34
62059;BME280;48017;51.064;7.014;2022-08-19T10:08:17;100739.66;;;26.07;52.43
62059;BME280;48017;51.064;7.014;2022-08-19T10:10:43;100735.50;;;24.93;55.61
62059;BME280;48017;51.064;7.014;2022-08-19T10:13:09;100730.59;;;25.95;53.99
62059;BME280;48017;51.064;7.014;2022-08-19T10:15:35;100731.22;;;25.97;53.70
62059;BME280;48017;51.064;7.014;2022-08-19T10:18:01;100731.59;;;26.30;51.87
62059;BME280;48017;51.064;7.014;2022-08-19T10:20:26;100735.66;;;26.69;50.38
62059;BME280;48017;51.064;7.014;2022-08-19T10:22:52;100724.25;;;26.49;49.62
62059;BME280;48017;51.064;7.014;2022-08-19T10:25:17;100723.28;;;26.44;50.47
62059;BME280;48017;51.064;7.014;2022-08-19T10:27:43;100723.56;;;26.35;48.93
62059;BME280;48017;51.064;7.014;2022-08-19T10:30:09;100735.66;;;25.73;50.71
62059;BME280;48017;51.064;7.014;2022-08-19T10:32:34;100735.38;;;26.29;49.59
62059;BME280;48017;51.064;7.014;2022-08-19T10:35:00;100729.72;;;26.31;49.63
62059;BME280;48017;51.064;7.014;2022-08-19T10:37:26;100734.88;;;26.92;48.66
62059;BME280;48017;51.064;7.014;2022-08-19T10:39:51;100726.84;;;26.97;48.12
62059;BME280;48017;51.064;7.014;2022-08-19T10:42:17;100727.28;;;26.71;49.12
62059;BME280;48017;51.064;7.014;2022-08-19T10:44:43;100725.84;;;26.68;48.81
62059;BME280;48017;51.064;7.014;2022-08-19T10:47:10;100728.31;;;27.35;47.75
62059;BME280;48017;51.064;7.014;2022-08-19T10:49:35;100721.94;;;27.30;46.98
62059;BME280;48017;51.064;7.014;2022-08-19T10:52:21;100719.47;;;26.75;48.30
62059;BME280;48017;51.064;7.014;2022-08-19T10:55:02;100705.34;;;26.54;48.70
62059;BME280;48017;51.064;7.014;2022-08-19T10:57:46;100713.72;;;27.76;46.15
62059;BME280;48017;51.064;7.014;2022-08-19T11:00:12;100707.56;;;27.81;45.70
62059;BME280;48017;51.064;7.014;2022-08-19T11:02:38;100710.44;;;27.04;47.53
62059;BME280;48017;51.064;7.014;2022-08-19T11:05:04;100705.81;;;26.51;48.85
62059;BME280;48017;51.064;7.014;2022-08-19T11:07:30;100707.94;;;27.03;47.81
62059;BME280;48017;51.064;7.014;2022-08-19T11:09:56;100702.75;;;27.24;46.38
62059;BME280;48017;51.064;7.014;2022-08-19T11:12:21;100702.75;;;26.48;47.69
62059;BME280;48017;51.064;7.014;2022-08-19T11:14:46;100705.47;;;25.99;49.47
62059;BME280;48017;51.064;7.014;2022-08-19T11:17:15;100701.19;;;26.40;48.80
62059;BME280;48017;51.064;7.014;2022-08-19T11:19:41;100699.19;;;26.17;48.71
62059;BME280;48017;51.064;7.014;2022-08-19T11:22:08;100709.00;;;26.00;49.44
62059;BME280;48017;51.064;7.014;2022-08-19T11:24:35;100704.72;;;26.40;48.57
62059;BME280;48017;51.064;7.014;2022-08-19T11:27:04;100711.91;;;26.77;47.76
62059;BME280;48017;51.064;7.014;2022-08-19T11:29:31;100706.88;;;27.04;47.23
62059;BME280;48017;51.064;7.014;2022-08-19T11:31:57;100694.09;;;27.27;46.11
62059;BME280;48017;51.064;7.014;2022-08-19T11:34:25;100697.69;;;26.33;48.03
62059;BME280;48017;51.064;7.014;2022-08-19T11:36:52;100697.97;;;26.96;46.88
62059;BME280;48017;51.064;7.014;2022-08-19T11:39:21;100695.06;;;27.33;45.79
62059;BME280;48017;51.064;7.014;2022-08-19T11:41:47;100695.63;;;27.35;45.17
62059;BME280;48017;51.064;7.014;2022-08-19T11:44:13;100699.19;;;27.71;44.63
62059;BME280;48017;51.064;7.014;2022-08-19T11:46:40;100690.41;;;27.80;44.46
62059;BME280;48017;51.064;7.014;2022-08-19T11:49:06;100686.78;;;27.05;46.06
62059;BME280;48017;51.064;7.014;2022-08-19T11:51:33;100698.03;;;26.66;46.43
62059;BME280;48017;51.064;7.014;2022-08-19T11:54:00;100695.72;;;26.82;46.54
62059;BME280;48017;51.064;7.014;2022-08-19T11:56:27;100696.19;;;26.79;46.30
62059;BME280;48017;51.064;7.014;2022-08-19T11:58:54;100692.00;;;26.53;47.53
62059;BME280;48017;51.064;7.014;2022-08-19T12:01:22;100685.69;;;26.10;47.26
62059;BME280;48017;51.064;7.014;2022-08-19T12:03:49;100696.69;;;26.99;45.55
62059;BME280;48017;51.064;7.014;2022-08-19T12:06:18;100693.50;;;27.61;45.00
62059;BME280;48017;51.064;7.014;2022-08-19T12:08:45;100688.03;;;26.67;45.65
62059;BME280;48017;51.064;7.014;2022-08-19T12:11:12;100676.72;;;27.05;44.66
62059;BME280;48017;51.064;7.014;2022-08-19T12:13:39;100680.91;;;27.83;43.29
62059;BME280;48017;51.064;7.014;2022-08-19T12:16:13;100679.72;;;27.79;42.18
62059;BME280;48017;51.064;7.014;2022-08-19T12:18:40;100690.69;;;27.96;42.35
62059;BME280;48017;51.064;7.014;2022-08-19T12:21:09;100681.94;;;27.94;41.51
62059;BME280;48017;51.064;7.014;2022-08-19T12:23:36;100689.63;;;27.97;40.43
62059;BME280;48017;51.064;7.014;2022-08-19T12:26:02;100689.00;;;28.06;41.10
62059;BME280;48017;51.064;7.014;2022-08-19T12:28:27;100689.81;;;28.07;41.26
62059;BME280;48017;51.064;7.014;2022-08-19T12:30:53;100684.91;;;28.66;39.86
62059;BME280;48017;51.064;7.014;2022-08-19T12:33:19;100680.78;;;28.47;40.37
62059;BME280;48017;51.064;7.014;2022-08-19T12:35:49;100672.66;;;28.35;39.74
62059;BME280;48017;51.064;7.014;2022-08-19T12:38:15;100679.13;;;28.46;40.02
62059;BME280;48017;51.064;7.014;2022-08-19T12:40:41;100677.66;;;28.55;39.56
62059;BME280;48017;51.064;7.014;2022-08-19T12:43:10;100677.25;;;27.77;41.03
62059;BME280;48017;51.064;7.014;2022-08-19T12:45:37;100671.69;;;28.58;39.92
62059;BME280;48017;51.064;7.014;2022-08-19T12:48:03;100672.34;;;28.65;40.30
62059;BME280;48017;51.064;7.014;2022-08-19T12:50:29;100664.25;;;28.87;39.07
62059;BME280;48017;51.064;7.014;2022-08-19T12:52:56;100668.03;;;29.19;39.32
62059;BME280;48017;51.064;7.014;2022-08-19T12:55:21;100666.31;;;28.80;40.05
62059;BME280;48017;51.064;7.014;2022-08-19T12:57:47;100661.94;;;28.17;40.80
62059;BME280;48017;51.064;7.014;2022-08-19T13:00:16;100665.72;;;28.44;40.77
62059;BME280;48017;51.064;7.014;2022-08-19T13:02:46;100663.16;;;28.71;39.48
62059;BME280;48017;51.064;7.014;2022-08-19T13:05:15;100659.38;;;28.10;40.09
62059;BME280;48017;51.064;7.014;2022-08-19T13:07:41;100651.22;;;28.89;39.31